KIML

Imperial Municipal Airport

Imperial, Nebraska, USA
METAR KIML 141329Z AUTO 33006KT 1/2SM FG VV002 17/17 A3005 RMK AO2 T01720172
Observed Flight Rules
Aug-14 @ 13:29 UTC (12 minutes ago) Instrument Flight Rules
Wind Visibility Clouds Conditions
330° at 6 knots 1/2 miles
  • Vertical visibility at 200' AGL
  • Fog
Temperatures Readings
Current 17°C / 63°F
Dewpoint 17°C / 63°F
Humidity 100%
Altimeter 30.05" Hg
Pressure 1018 hPa
Elevation 998
METAR KIML 141329Z AUTO 33006KT 1/2SM FG VV002 17/17 A3005 RMK AO2 T01720172
Observed Flight Rules
Aug-14 @ 13:29 UTC
(12 minutes ago)
LIFR
Wind Visibility
330° at 6 knots 1/2 miles
Clouds
  • Vertical visibility at 200' AGL
Conditions
  • Fog
Temperature Dewpoint
17°C / 63°F 17°C / 63°F
Humidity Altimeter Pressure
100% 30.05" Hg 1018 hPa